sensor_id;sensor_type;location;lat;lon;timestamp;pressure;altitude;pressure_sealevel;temperature;humidity
83557;BME280;73523;55.740;13.276;2023-11-22T00:02:15;101979.16;;;23.86;31.73
83557;BME280;73523;55.740;13.276;2023-11-22T00:04:40;101989.63;;;23.84;32.09
83557;BME280;73523;55.740;13.276;2023-11-22T00:07:05;101989.63;;;23.84;31.71
83557;BME280;73523;55.740;13.276;2023-11-22T00:09:32;101995.41;;;23.82;31.82
83557;BME280;73523;55.740;13.276;2023-11-22T00:11:57;101990.94;;;23.81;31.73
83557;BME280;73523;55.740;13.276;2023-11-22T00:14:25;101992.03;;;23.80;31.99
83557;BME280;73523;55.740;13.276;2023-11-22T00:16:51;101993.94;;;23.80;32.04
83557;BME280;73523;55.740;13.276;2023-11-22T00:19:16;101999.47;;;23.80;32.13
83557;BME280;73523;55.740;13.276;2023-11-22T00:21:43;101997.81;;;23.79;32.13
83557;BME280;73523;55.740;13.276;2023-11-22T00:24:09;101998.06;;;23.77;32.00
83557;BME280;73523;55.740;13.276;2023-11-22T00:26:34;101993.59;;;23.76;31.92
83557;BME280;73523;55.740;13.276;2023-11-22T00:29:00;101997.44;;;23.75;31.83
83557;BME280;73523;55.740;13.276;2023-11-22T00:31:25;101992.16;;;23.74;31.98
83557;BME280;73523;55.740;13.276;2023-11-22T00:33:50;101989.84;;;23.70;31.75
83557;BME280;73523;55.740;13.276;2023-11-22T00:36:16;101988.16;;;23.69;32.22
83557;BME280;73523;55.740;13.276;2023-11-22T00:38:41;101994.19;;;23.66;32.01
83557;BME280;73523;55.740;13.276;2023-11-22T00:41:07;101991.88;;;23.63;31.86
83557;BME280;73523;55.740;13.276;2023-11-22T00:43:33;101995.72;;;23.62;32.03
83557;BME280;73523;55.740;13.276;2023-11-22T00:45:58;101994.03;;;23.61;32.30
83557;BME280;73523;55.740;13.276;2023-11-22T00:48:23;101998.94;;;23.59;32.26
83557;BME280;73523;55.740;13.276;2023-11-22T00:50:48;101998.09;;;23.59;31.98
83557;BME280;73523;55.740;13.276;2023-11-22T00:53:14;101996.41;;;23.58;32.38
83557;BME280;73523;55.740;13.276;2023-11-22T00:55:40;102004.09;;;23.56;32.15
83557;BME280;73523;55.740;13.276;2023-11-22T00:58:05;102004.09;;;23.56;32.36
83557;BME280;73523;55.740;13.276;2023-11-22T01:00:31;102013.13;;;23.51;32.06
83557;BME280;73523;55.740;13.276;2023-11-22T01:02:56;102017.59;;;23.52;32.16
83557;BME280;73523;55.740;13.276;2023-11-22T01:05:21;102017.59;;;23.52;32.31
83557;BME280;73523;55.740;13.276;2023-11-22T01:07:48;102018.88;;;23.50;32.51
83557;BME280;73523;55.740;13.276;2023-11-22T01:10:13;102021.84;;;23.48;32.14
83557;BME280;73523;55.740;13.276;2023-11-22T01:12:40;102026.53;;;23.48;32.07
83557;BME280;73523;55.740;13.276;2023-11-22T01:15:07;102021.00;;;23.48;32.14
83557;BME280;73523;55.740;13.276;2023-11-22T01:17:34;102022.94;;;23.47;32.23
83557;BME280;73523;55.740;13.276;2023-11-22T01:20:00;102024.84;;;23.47;32.33
83557;BME280;73523;55.740;13.276;2023-11-22T01:22:25;102028.69;;;23.46;31.99
83557;BME280;73523;55.740;13.276;2023-11-22T01:24:51;102033.63;;;23.44;32.04
83557;BME280;73523;55.740;13.276;2023-11-22T01:27:16;102038.31;;;23.43;32.45
83557;BME280;73523;55.740;13.276;2023-11-22T01:29:41;102030.25;;;23.42;32.19
83557;BME280;73523;55.740;13.276;2023-11-22T01:32:07;102029.66;;;23.40;32.14
83557;BME280;73523;55.740;13.276;2023-11-22T01:34:34;102018.41;;;23.34;32.08
83557;BME280;73523;55.740;13.276;2023-11-22T01:36:59;102011.19;;;23.33;32.40
83557;BME280;73523;55.740;13.276;2023-11-22T01:39:25;102010.34;;;23.33;32.36
83557;BME280;73523;55.740;13.276;2023-11-22T01:41:51;102010.56;;;23.31;32.09
83557;BME280;73523;55.740;13.276;2023-11-22T01:44:16;102008.06;;;23.30;31.91
83557;BME280;73523;55.740;13.276;2023-11-22T01:46:43;102005.31;;;23.30;32.01
83557;BME280;73523;55.740;13.276;2023-11-22T01:49:10;102010.00;;;23.29;32.36
83557;BME280;73523;55.740;13.276;2023-11-22T01:51:37;102011.91;;;23.29;32.34
83557;BME280;73523;55.740;13.276;2023-11-22T01:54:02;102017.44;;;23.29;32.30
83557;BME280;73523;55.740;13.276;2023-11-22T01:56:28;102021.06;;;23.29;32.37
83557;BME280;73523;55.740;13.276;2023-11-22T01:58:57;102015.75;;;23.28;32.41
83557;BME280;73523;55.740;13.276;2023-11-22T02:01:26;102006.00;;;23.25;32.38
83557;BME280;73523;55.740;13.276;2023-11-22T02:03:51;102005.16;;;23.25;32.39
83557;BME280;73523;55.740;13.276;2023-11-22T02:06:19;102008.75;;;23.25;32.34
83557;BME280;73523;55.740;13.276;2023-11-22T02:08:44;102005.16;;;23.25;32.54
83557;BME280;73523;55.740;13.276;2023-11-22T02:11:10;102004.31;;;23.24;32.11
83557;BME280;73523;55.740;13.276;2023-11-22T02:13:35;102009.84;;;23.24;32.05
83557;BME280;73523;55.740;13.276;2023-11-22T02:16:02;102002.59;;;23.23;32.28
83557;BME280;73523;55.740;13.276;2023-11-22T02:18:28;102003.47;;;23.24;32.49
83557;BME280;73523;55.740;13.276;2023-11-22T02:20:54;102002.59;;;23.23;31.98
83557;BME280;73523;55.740;13.276;2023-11-22T02:23:19;102013.69;;;23.23;32.34
83557;BME280;73523;55.740;13.276;2023-11-22T02:25:44;102023.66;;;23.24;31.96
83557;BME280;73523;55.740;13.276;2023-11-22T02:28:11;102024.75;;;23.23;32.17
83557;BME280;73523;55.740;13.276;2023-11-22T02:30:37;102020.06;;;23.24;32.35
83557;BME280;73523;55.740;13.276;2023-11-22T02:33:03;102020.06;;;23.24;32.05
83557;BME280;73523;55.740;13.276;2023-11-22T02:35:30;102020.06;;;23.24;31.83
83557;BME280;73523;55.740;13.276;2023-11-22T02:37:57;102023.66;;;23.24;32.07
83557;BME280;73523;55.740;13.276;2023-11-22T02:40:22;102013.44;;;23.25;32.08
83557;BME280;73523;55.740;13.276;2023-11-22T02:42:48;102007.06;;;23.24;32.28
83557;BME280;73523;55.740;13.276;2023-11-22T02:45:15;102003.47;;;23.24;32.10
83557;BME280;73523;55.740;13.276;2023-11-22T02:47:40;102014.53;;;23.24;32.33
83557;BME280;73523;55.740;13.276;2023-11-22T02:50:06;102012.22;;;23.21;32.04
83557;BME280;73523;55.740;13.276;2023-11-22T02:52:32;102021.34;;;23.21;32.11
83557;BME280;73523;55.740;13.276;2023-11-22T02:54:58;102014.13;;;23.20;32.16
83557;BME280;73523;55.740;13.276;2023-11-22T02:57:23;102002.22;;;23.20;32.21
83557;BME280;73523;55.740;13.276;2023-11-22T02:59:49;102004.75;;;23.21;32.31
83557;BME280;73523;55.740;13.276;2023-11-22T03:02:14;102020.28;;;23.22;32.19
83557;BME280;73523;55.740;13.276;2023-11-22T03:04:42;102024.97;;;23.22;32.41
83557;BME280;73523;55.740;13.276;2023-11-22T03:07:08;102028.59;;;23.22;32.34
83557;BME280;73523;55.740;13.276;2023-11-22T03:09:33;102036.03;;;23.22;32.00
83557;BME280;73523;55.740;13.276;2023-11-22T03:11:58;102031.34;;;23.22;32.21
83557;BME280;73523;55.740;13.276;2023-11-22T03:14:23;102029.66;;;23.21;32.05
83557;BME280;73523;55.740;13.276;2023-11-22T03:16:49;102030.50;;;23.22;32.14
83557;BME280;73523;55.740;13.276;2023-11-22T03:19:14;102029.44;;;23.23;32.33
83557;BME280;73523;55.740;13.276;2023-11-22T03:21:40;102028.34;;;23.24;31.91
83557;BME280;73523;55.740;13.276;2023-11-22T03:24:07;102033.03;;;23.23;31.81
83557;BME280;73523;55.740;13.276;2023-11-22T03:26:33;102026.66;;;23.23;32.28
83557;BME280;73523;55.740;13.276;2023-11-22T03:28:59;102024.75;;;23.23;32.11
83557;BME280;73523;55.740;13.276;2023-11-22T03:31:24;102039.41;;;23.24;32.26
83557;BME280;73523;55.740;13.276;2023-11-22T03:33:50;102042.19;;;23.24;32.13
83557;BME280;73523;55.740;13.276;2023-11-22T03:36:15;102048.34;;;23.26;32.14
83557;BME280;73523;55.740;13.276;2023-11-22T03:38:40;102045.34;;;23.27;32.25
83557;BME280;73523;55.740;13.276;2023-11-22T03:41:06;102037.28;;;23.26;31.80
83557;BME280;73523;55.740;13.276;2023-11-22T03:43:31;102039.81;;;23.27;32.09
83557;BME280;73523;55.740;13.276;2023-11-22T03:45:56;102038.50;;;23.30;31.73
83557;BME280;73523;55.740;13.276;2023-11-22T03:48:22;102029.09;;;23.31;32.03
83557;BME280;73523;55.740;13.276;2023-11-22T03:50:49;102030.22;;;23.30;32.07
83557;BME280;73523;55.740;13.276;2023-11-22T03:53:14;102030.22;;;23.30;31.80
83557;BME280;73523;55.740;13.276;2023-11-22T03:55:39;102032.13;;;23.29;32.10
83557;BME280;73523;55.740;13.276;2023-11-22T03:58:05;102027.19;;;23.31;31.98
83557;BME280;73523;55.740;13.276;2023-11-22T04:00:31;102035.13;;;23.28;32.08
83557;BME280;73523;55.740;13.276;2023-11-22T04:02:57;102041.50;;;23.28;31.78
83557;BME280;73523;55.740;13.276;2023-11-22T04:05:25;102035.13;;;23.28;31.83
83557;BME280;73523;55.740;13.276;2023-11-22T04:07:51;102038.50;;;23.30;31.66
83557;BME280;73523;55.740;13.276;2023-11-22T04:10:17;102034.91;;;23.29;31.93
83557;BME280;73523;55.740;13.276;2023-11-22T04:12:42;102041.00;;;23.31;32.07
83557;BME280;73523;55.740;13.276;2023-11-22T04:15:08;102038.50;;;23.30;31.87
83557;BME280;73523;55.740;13.276;2023-11-22T04:17:36;102044.88;;;23.30;32.14
83557;BME280;73523;55.740;13.276;2023-11-22T04:20:04;102027.44;;;23.30;31.85
83557;BME280;73523;55.740;13.276;2023-11-22T04:22:34;102027.44;;;23.30;31.67
83557;BME280;73523;55.740;13.276;2023-11-22T04:24:59;102014.44;;;23.30;32.01
83557;BME280;73523;55.740;13.276;2023-11-22T04:27:24;102020.81;;;23.31;31.95
83557;BME280;73523;55.740;13.276;2023-11-22T04:29:50;102017.22;;;23.30;31.72
83557;BME280;73523;55.740;13.276;2023-11-22T04:32:15;102019.13;;;23.30;32.02
83557;BME280;73523;55.740;13.276;2023-11-22T04:34:40;102018.03;;;23.31;31.71
83557;BME280;73523;55.740;13.276;2023-11-22T04:37:06;102014.19;;;23.32;31.62
83557;BME280;73523;55.740;13.276;2023-11-22T04:39:31;102007.81;;;23.31;31.67
83557;BME280;73523;55.740;13.276;2023-11-22T04:41:57;102013.97;;;23.33;31.46
83557;BME280;73523;55.740;13.276;2023-11-22T04:44:22;101995.44;;;23.34;31.52
83557;BME280;73523;55.740;13.276;2023-11-22T04:46:47;101998.81;;;23.36;31.63
83557;BME280;73523;55.740;13.276;2023-11-22T04:49:13;101994.13;;;23.37;31.47
83557;BME280;73523;55.740;13.276;2023-11-22T04:51:38;101999.66;;;23.37;31.44
83557;BME280;73523;55.740;13.276;2023-11-22T04:54:04;101991.97;;;23.39;31.49
83557;BME280;73523;55.740;13.276;2023-11-22T04:56:29;101990.91;;;23.40;31.73
83557;BME280;73523;55.740;13.276;2023-11-22T04:58:55;101987.06;;;23.41;31.21
83557;BME280;73523;55.740;13.276;2023-11-22T05:01:20;101983.44;;;23.40;31.60
83557;BME280;73523;55.740;13.276;2023-11-22T05:03:45;101988.38;;;23.38;31.67
83557;BME280;73523;55.740;13.276;2023-11-22T05:06:11;101986.91;;;23.35;32.08
83557;BME280;73523;55.740;13.276;2023-11-22T05:08:36;101978.00;;;23.33;32.23
83557;BME280;73523;55.740;13.276;2023-11-22T05:11:01;101987.59;;;23.31;32.26
83557;BME280;73523;55.740;13.276;2023-11-22T05:13:28;101984.25;;;23.29;32.16
83557;BME280;73523;55.740;13.276;2023-11-22T05:15:53;101983.16;;;23.30;31.84
83557;BME280;73523;55.740;13.276;2023-11-22T05:18:19;101973.53;;;23.32;31.96
83557;BME280;73523;55.740;13.276;2023-11-22T05:20:44;101979.31;;;23.31;32.23
83557;BME280;73523;55.740;13.276;2023-11-22T05:23:10;101963.09;;;23.34;32.25
83557;BME280;73523;55.740;13.276;2023-11-22T05:25:35;101971.38;;;23.34;32.33
83557;BME280;73523;55.740;13.276;2023-11-22T05:28:01;101975.84;;;23.35;32.23
83557;BME280;73523;55.740;13.276;2023-11-22T05:30:26;101978.38;;;23.37;31.82
83557;BME280;73523;55.740;13.276;2023-11-22T05:32:51;102006.91;;;23.38;31.96
83557;BME280;73523;55.740;13.276;2023-11-22T05:35:17;102010.50;;;23.38;31.91
83557;BME280;73523;55.740;13.276;2023-11-22T05:37:42;101995.81;;;23.38;32.10
83557;BME280;73523;55.740;13.276;2023-11-22T05:40:08;102021.81;;;23.37;31.92
83557;BME280;73523;55.740;13.276;2023-11-22T05:42:35;102020.72;;;23.38;32.10
83557;BME280;73523;55.740;13.276;2023-11-22T05:45:01;102035.41;;;23.38;31.70
83557;BME280;73523;55.740;13.276;2023-11-22T05:47:26;102032.66;;;23.38;31.88
83557;BME280;73523;55.740;13.276;2023-11-22T05:49:52;102024.13;;;23.40;31.72
83557;BME280;73523;55.740;13.276;2023-11-22T05:52:17;102020.50;;;23.39;31.96
83557;BME280;73523;55.740;13.276;2023-11-22T05:54:43;102009.44;;;23.39;31.90
83557;BME280;73523;55.740;13.276;2023-11-22T05:57:08;101992.84;;;23.39;31.94
83557;BME280;73523;55.740;13.276;2023-11-22T05:59:35;101984.06;;;23.42;31.55
83557;BME280;73523;55.740;13.276;2023-11-22T06:02:01;101976.59;;;23.43;31.83
83557;BME280;73523;55.740;13.276;2023-11-22T06:04:26;101968.91;;;23.45;31.78
83557;BME280;73523;55.740;13.276;2023-11-22T06:06:51;101966.13;;;23.45;31.65
83557;BME280;73523;55.740;13.276;2023-11-22T06:09:17;101964.22;;;23.45;31.64
83557;BME280;73523;55.740;13.276;2023-11-22T06:11:42;101962.50;;;23.44;31.36
83557;BME280;73523;55.740;13.276;2023-11-22T06:14:07;101962.28;;;23.46;31.41
83557;BME280;73523;55.740;13.276;2023-11-22T06:16:33;101965.06;;;23.46;31.61
83557;BME280;73523;55.740;13.276;2023-11-22T06:18:58;101953.13;;;23.45;31.79
83557;BME280;73523;55.740;13.276;2023-11-22T06:21:23;101958.91;;;23.44;31.78
83557;BME280;73523;55.740;13.276;2023-11-22T06:23:52;101959.97;;;23.43;31.82
83557;BME280;73523;55.740;13.276;2023-11-22T06:26:17;101947.00;;;23.43;31.73
83557;BME280;73523;55.740;13.276;2023-11-22T06:28:43;101953.63;;;23.42;31.57
83557;BME280;73523;55.740;13.276;2023-11-22T06:31:10;101945.31;;;23.42;31.65
83557;BME280;73523;55.740;13.276;2023-11-22T06:33:36;101932.56;;;23.41;31.46
83557;BME280;73523;55.740;13.276;2023-11-22T06:36:01;101947.25;;;23.42;31.38
83557;BME280;73523;55.740;13.276;2023-11-22T06:38:26;101962.75;;;23.43;31.44
83557;BME280;73523;55.740;13.276;2023-11-22T06:40:53;101967.19;;;23.44;31.82
83557;BME280;73523;55.740;13.276;2023-11-22T06:43:18;101976.34;;;23.44;31.55
83557;BME280;73523;55.740;13.276;2023-11-22T06:45:44;101978.28;;;23.44;31.85
83557;BME280;73523;55.740;13.276;2023-11-22T06:48:10;101984.88;;;23.43;31.63
83557;BME280;73523;55.740;13.276;2023-11-22T06:50:35;101974.66;;;23.43;31.74
83557;BME280;73523;55.740;13.276;2023-11-22T06:53:00;101971.88;;;23.43;31.62
83557;BME280;73523;55.740;13.276;2023-11-22T06:55:28;101968.28;;;23.43;31.50
83557;BME280;73523;55.740;13.276;2023-11-22T06:57:53;101979.34;;;23.43;31.44
83557;BME280;73523;55.740;13.276;2023-11-22T07:00:19;101984.88;;;23.43;31.29
83557;BME280;73523;55.740;13.276;2023-11-22T07:02:45;101978.53;;;23.42;31.57
83557;BME280;73523;55.740;13.276;2023-11-22T07:05:10;101983.56;;;23.45;31.32
83557;BME280;73523;55.740;13.276;2023-11-22T07:07:37;101997.41;;;23.45;31.48
83557;BME280;73523;55.740;13.276;2023-11-22T07:10:03;102001.63;;;23.48;31.58
83557;BME280;73523;55.740;13.276;2023-11-22T07:12:33;102012.47;;;23.49;31.29
83557;BME280;73523;55.740;13.276;2023-11-22T07:15:02;102008.44;;;23.52;31.33
83557;BME280;73523;55.740;13.276;2023-11-22T07:17:28;102020.34;;;23.52;31.30
83557;BME280;73523;55.740;13.276;2023-11-22T07:19:54;102033.97;;;23.54;31.22
83557;BME280;73523;55.740;13.276;2023-11-22T07:22:20;102027.72;;;23.58;30.95
83557;BME280;73523;55.740;13.276;2023-11-22T07:24:48;102028.56;;;23.59;31.19
83557;BME280;73523;55.740;13.276;2023-11-22T07:27:16;102027.47;;;23.60;30.97
83557;BME280;73523;55.740;13.276;2023-11-22T07:29:43;102013.03;;;23.58;31.13
83557;BME280;73523;55.740;13.276;2023-11-22T07:32:10;102005.56;;;23.58;31.07
83557;BME280;73523;55.740;13.276;2023-11-22T07:34:36;102001.09;;;23.57;31.27
83557;BME280;73523;55.740;13.276;2023-11-22T07:37:02;101991.09;;;23.56;31.19
83557;BME280;73523;55.740;13.276;2023-11-22T07:39:28;101984.72;;;23.56;31.00
83557;BME280;73523;55.740;13.276;2023-11-22T07:41:56;101983.88;;;23.55;31.09
83557;BME280;73523;55.740;13.276;2023-11-22T07:44:22;101981.13;;;23.55;31.24
83557;BME280;73523;55.740;13.276;2023-11-22T07:46:49;101968.38;;;23.54;30.84
83557;BME280;73523;55.740;13.276;2023-11-22T07:49:14;101983.66;;;23.57;30.71
83557;BME280;73523;55.740;13.276;2023-11-22T07:51:40;101968.97;;;23.56;31.22
83557;BME280;73523;55.740;13.276;2023-11-22T07:54:06;101963.66;;;23.55;31.14
83557;BME280;73523;55.740;13.276;2023-11-22T07:56:32;101963.44;;;23.56;31.09
83557;BME280;73523;55.740;13.276;2023-11-22T07:59:00;101962.59;;;23.56;31.22
83557;BME280;73523;55.740;13.276;2023-11-22T08:01:26;101949.59;;;23.56;31.03
83557;BME280;73523;55.740;13.276;2023-11-22T08:03:55;101963.44;;;23.56;31.24
83557;BME280;73523;55.740;13.276;2023-11-22T08:06:21;101951.50;;;23.56;31.05
83557;BME280;73523;55.740;13.276;2023-11-22T08:08:46;101949.34;;;23.58;30.79
83557;BME280;73523;55.740;13.276;2023-11-22T08:11:11;101949.34;;;23.58;31.07
83557;BME280;73523;55.740;13.276;2023-11-22T08:13:43;101943.81;;;23.58;30.86
83557;BME280;73523;55.740;13.276;2023-11-22T08:16:10;101935.28;;;23.59;30.89
83557;BME280;73523;55.740;13.276;2023-11-22T08:18:35;101937.22;;;23.59;31.04
83557;BME280;73523;55.740;13.276;2023-11-22T08:21:01;101928.66;;;23.60;31.19
83557;BME280;73523;55.740;13.276;2023-11-22T08:23:26;101924.81;;;23.61;30.73
83557;BME280;73523;55.740;13.276;2023-11-22T08:25:55;101935.91;;;23.61;30.76
83557;BME280;73523;55.740;13.276;2023-11-22T08:28:22;101934.81;;;23.62;30.81
83557;BME280;73523;55.740;13.276;2023-11-22T08:30:47;101938.44;;;23.63;31.09
83557;BME280;73523;55.740;13.276;2023-11-22T08:33:12;101941.19;;;23.63;31.08
83557;BME280;73523;55.740;13.276;2023-11-22T08:35:38;101951.19;;;23.64;30.74
83557;BME280;73523;55.740;13.276;2023-11-22T08:38:04;101951.19;;;23.64;31.04
83557;BME280;73523;55.740;13.276;2023-11-22T08:40:33;101961.41;;;23.63;31.16
83557;BME280;73523;55.740;13.276;2023-11-22T08:43:02;101961.66;;;23.62;30.97
83557;BME280;73523;55.740;13.276;2023-11-22T08:45:27;101965.28;;;23.62;31.20
83557;BME280;73523;55.740;13.276;2023-11-22T08:47:54;101969.34;;;23.60;31.24
83557;BME280;73523;55.740;13.276;2023-11-22T08:50:19;101958.88;;;23.62;30.71
83557;BME280;73523;55.740;13.276;2023-11-22T08:52:45;101954.44;;;23.61;31.04
83557;BME280;73523;55.740;13.276;2023-11-22T08:55:12;101954.44;;;23.61;30.80
83557;BME280;73523;55.740;13.276;2023-11-22T08:57:38;101957.19;;;23.61;31.19
83557;BME280;73523;55.740;13.276;2023-11-22T09:00:04;101946.97;;;23.61;30.84
83557;BME280;73523;55.740;13.276;2023-11-22T09:02:35;101948.91;;;23.61;31.17
83557;BME280;73523;55.740;13.276;2023-11-22T09:05:04;101914.84;;;23.60;30.88
83557;BME280;73523;55.740;13.276;2023-11-22T09:07:33;101926.75;;;23.61;30.95
83557;BME280;73523;55.740;13.276;2023-11-22T09:10:00;101925.66;;;23.62;31.32
83557;BME280;73523;55.740;13.276;2023-11-22T09:12:25;101927.59;;;23.61;30.80
83557;BME280;73523;55.740;13.276;2023-11-22T09:14:52;101936.75;;;23.62;31.16
83557;BME280;73523;55.740;13.276;2023-11-22T09:17:18;101933.97;;;23.62;31.24
83557;BME280;73523;55.740;13.276;2023-11-22T09:19:43;101932.91;;;23.63;30.97
83557;BME280;73523;55.740;13.276;2023-11-22T09:22:09;101921.81;;;23.63;31.12
83557;BME280;73523;55.740;13.276;2023-11-22T09:24:36;101922.66;;;23.63;30.80
83557;BME280;73523;55.740;13.276;2023-11-22T09:27:02;101921.59;;;23.64;31.13
83557;BME280;73523;55.740;13.276;2023-11-22T09:29:30;101923.00;;;23.67;30.85
83557;BME280;73523;55.740;13.276;2023-11-22T09:31:55;101909.19;;;23.67;30.87
83557;BME280;73523;55.740;13.276;2023-11-22T09:34:21;101898.94;;;23.67;30.74
83557;BME280;73523;55.740;13.276;2023-11-22T09:36:47;101887.88;;;23.67;30.87
83557;BME280;73523;55.740;13.276;2023-11-22T09:39:12;101883.19;;;23.68;30.87
83557;BME280;73523;55.740;13.276;2023-11-22T09:41:38;101880.69;;;23.66;31.21
83557;BME280;73523;55.740;13.276;2023-11-22T09:44:04;101871.03;;;23.69;30.71
83557;BME280;73523;55.740;13.276;2023-11-22T09:46:30;101856.34;;;23.68;31.10
83557;BME280;73523;55.740;13.276;2023-11-22T09:48:57;101841.94;;;23.66;31.17
83557;BME280;73523;55.740;13.276;2023-11-22T09:51:32;101838.31;;;23.66;31.13
83557;BME280;73523;55.740;13.276;2023-11-22T09:54:05;101829.16;;;23.65;30.87
83557;BME280;73523;55.740;13.276;2023-11-22T09:56:33;101836.63;;;23.65;31.20
83557;BME280;73523;55.740;13.276;2023-11-22T09:59:00;101837.69;;;23.64;31.02
83557;BME280;73523;55.740;13.276;2023-11-22T10:01:28;101824.72;;;23.64;31.18
83557;BME280;73523;55.740;13.276;2023-11-22T10:03:54;101802.78;;;23.63;30.95
83557;BME280;73523;55.740;13.276;2023-11-22T10:06:20;101801.94;;;23.62;31.20
83557;BME280;73523;55.740;13.276;2023-11-22T10:08:46;101798.09;;;23.63;31.02
83557;BME280;73523;55.740;13.276;2023-11-22T10:11:15;101793.41;;;23.64;31.06
83557;BME280;73523;55.740;13.276;2023-11-22T10:13:51;101795.34;;;23.63;31.30
83557;BME280;73523;55.740;13.276;2023-11-22T10:16:18;101785.34;;;23.62;31.32
83557;BME280;73523;55.740;13.276;2023-11-22T10:18:46;101779.56;;;23.64;31.19
83557;BME280;73523;55.740;13.276;2023-11-22T10:21:38;101766.81;;;23.63;31.02
83557;BME280;73523;55.740;13.276;2023-11-22T10:24:05;101788.13;;;23.62;30.89
83557;BME280;73523;55.740;13.276;2023-11-22T10:26:35;101785.59;;;23.61;31.07
83557;BME280;73523;55.740;13.276;2023-11-22T10:29:01;101789.81;;;23.63;30.90
83557;BME280;73523;55.740;13.276;2023-11-22T10:31:27;101787.03;;;23.63;31.06
83557;BME280;73523;55.740;13.276;2023-11-22T10:33:53;101780.41;;;23.64;31.33
83557;BME280;73523;55.740;13.276;2023-11-22T10:36:21;101766.56;;;23.64;31.39
83557;BME280;73523;55.740;13.276;2023-11-22T10:38:47;101759.34;;;23.63;31.30
83557;BME280;73523;55.740;13.276;2023-11-22T10:41:12;101749.97;;;23.64;31.16
83557;BME280;73523;55.740;13.276;2023-11-22T10:43:39;101744.19;;;23.66;31.27
83557;BME280;73523;55.740;13.276;2023-11-22T10:46:07;101743.34;;;23.65;31.09
83557;BME280;73523;55.740;13.276;2023-11-22T10:48:35;101724.31;;;23.69;31.28
83557;BME280;73523;55.740;13.276;2023-11-22T10:51:03;101700.25;;;23.69;31.21
83557;BME280;73523;55.740;13.276;2023-11-22T10:53:34;101689.16;;;23.69;31.00
83557;BME280;73523;55.740;13.276;2023-11-22T10:56:12;101679.19;;;23.68;31.04
83557;BME280;73523;55.740;13.276;2023-11-22T10:58:48;101652.34;;;23.69;31.30
83557;BME280;73523;55.740;13.276;2023-11-22T11:01:18;101643.19;;;23.68;31.08
83557;BME280;73523;55.740;13.276;2023-11-22T11:04:09;101640.41;;;23.68;31.16
83557;BME280;73523;55.740;13.276;2023-11-22T11:06:35;101647.88;;;23.68;30.99
83557;BME280;73523;55.740;13.276;2023-11-22T11:09:05;101654.50;;;23.67;31.04
83557;BME280;73523;55.740;13.276;2023-11-22T11:11:32;101645.03;;;23.63;31.69
83557;BME280;73523;55.740;13.276;2023-11-22T11:13:59;101628.66;;;23.61;31.70
83557;BME280;73523;55.740;13.276;2023-11-22T11:16:26;101637.19;;;23.60;31.26
83557;BME280;73523;55.740;13.276;2023-11-22T11:18:53;101646.09;;;23.62;31.47
83557;BME280;73523;55.740;13.276;2023-11-22T11:21:20;101641.41;;;23.62;31.29
83557;BME280;73523;55.740;13.276;2023-11-22T11:23:45;101636.72;;;23.63;31.36
83557;BME280;73523;55.740;13.276;2023-11-22T11:26:15;101633.09;;;23.62;31.18
83557;BME280;73523;55.740;13.276;2023-11-22T11:28:48;101639.25;;;23.64;31.26
83557;BME280;73523;55.740;13.276;2023-11-22T11:31:14;101646.47;;;23.65;30.95
83557;BME280;73523;55.740;13.276;2023-11-22T11:36:30;101635.13;;;23.67;30.92
83557;BME280;73523;55.740;13.276;2023-11-22T11:39:01;101638.50;;;23.69;31.15
83557;BME280;73523;55.740;13.276;2023-11-22T11:41:31;101647.63;;;23.69;31.14
83557;BME280;73523;55.740;13.276;2023-11-22T11:44:03;101634.03;;;23.68;31.15
83557;BME280;73523;55.740;13.276;2023-11-22T11:46:30;101616.34;;;23.69;30.93
83557;BME280;73523;55.740;13.276;2023-11-22T11:48:56;101634.63;;;23.70;31.28
83557;BME280;73523;55.740;13.276;2023-11-22T11:51:23;101631.88;;;23.70;31.42
83557;BME280;73523;55.740;13.276;2023-11-22T11:53:49;101626.56;;;23.68;31.23
83557;BME280;73523;55.740;13.276;2023-11-22T11:56:15;101613.56;;;23.69;31.18
83557;BME280;73523;55.740;13.276;2023-11-22T11:58:44;101608.28;;;23.67;31.33
83557;BME280;73523;55.740;13.276;2023-11-22T12:01:12;101565.69;;;23.68;31.40
83557;BME280;73523;55.740;13.276;2023-11-22T12:03:38;101562.34;;;23.66;30.96
83557;BME280;73523;55.740;13.276;2023-11-22T12:06:05;101569.53;;;23.67;31.06
83557;BME280;73523;55.740;13.276;2023-11-22T12:08:30;101551.50;;;23.65;31.32
83557;BME280;73523;55.740;13.276;2023-11-22T12:11:01;101559.81;;;23.65;31.16
83557;BME280;73523;55.740;13.276;2023-11-22T12:13:27;101555.97;;;23.66;31.33
83557;BME280;73523;55.740;13.276;2023-11-22T12:15:53;101539.34;;;23.66;31.13
83557;BME280;73523;55.740;13.276;2023-11-22T12:18:19;101536.59;;;23.66;31.22
83557;BME280;73523;55.740;13.276;2023-11-22T12:20:57;101524.69;;;23.65;30.95
83557;BME280;73523;55.740;13.276;2023-11-22T12:23:24;101504.22;;;23.66;31.07
83557;BME280;73523;55.740;13.276;2023-11-22T12:25:54;101493.94;;;23.67;30.95
83557;BME280;73523;55.740;13.276;2023-11-22T12:28:22;101494.78;;;23.67;31.25
83557;BME280;73523;55.740;13.276;2023-11-22T12:30:48;101478.47;;;23.66;31.12
83557;BME280;73523;55.740;13.276;2023-11-22T12:33:13;101482.31;;;23.65;31.26
83557;BME280;73523;55.740;13.276;2023-11-22T12:35:42;101476.78;;;23.65;31.07
83557;BME280;73523;55.740;13.276;2023-11-22T12:38:09;101488.94;;;23.64;31.19
83557;BME280;73523;55.740;13.276;2023-11-22T12:40:35;101486.16;;;23.64;31.12